createdAt,value
2023-05-03T00:03:09.307Z,101703.80
2023-05-03T00:06:50.814Z,101706.59
2023-05-03T00:09:50.802Z,101703.98
2023-05-03T00:13:04.241Z,101705.55
2023-05-03T00:16:30.845Z,101702.77
2023-05-03T00:19:31.695Z,101702.78
2023-05-03T00:23:03.241Z,101705.20
2023-05-03T00:26:20.686Z,101705.53
2023-05-03T00:29:03.846Z,101707.10
2023-05-03T00:32:07.959Z,101704.84
2023-05-03T00:35:06.033Z,101703.45
2023-05-03T00:37:58.819Z,101707.25
2023-05-03T00:41:13.564Z,101707.59
2023-05-03T00:44:18.812Z,101709.17
2023-05-03T00:47:07.066Z,101702.24
2023-05-03T00:50:42.419Z,101699.13
2023-05-03T00:53:57.027Z,101699.64
2023-05-03T00:57:51.375Z,101701.20
2023-05-03T01:01:36.240Z,101699.98
2023-05-03T01:05:10.880Z,101699.81
2023-05-03T01:08:51.790Z,101703.09
2023-05-03T01:11:55.257Z,101697.20
2023-05-03T01:15:48.296Z,101702.73
2023-05-03T01:19:46.930Z,101699.07
2023-05-03T01:23:38.569Z,101696.14
2023-05-03T01:27:04.278Z,101701.31
2023-05-03T01:30:10.177Z,101700.95
2023-05-03T01:33:58.009Z,101708.72
2023-05-03T01:37:21.680Z,101713.55
2023-05-03T01:40:28.866Z,101714.05
2023-05-03T01:43:41.799Z,101718.90
2023-05-03T01:47:30.236Z,101713.35
2023-05-03T01:50:36.191Z,101715.77
2023-05-03T01:53:45.425Z,101712.48
2023-05-03T01:56:53.712Z,101715.75
2023-05-03T02:00:11.518Z,101715.22
2023-05-03T02:03:02.119Z,101712.96
2023-05-03T02:06:33.614Z,101711.08
2023-05-03T02:10:01.701Z,101709.17
2023-05-03T02:13:15.415Z,101708.48
2023-05-03T02:17:12.090Z,101706.59
2023-05-03T02:20:39.237Z,101709.17
2023-05-03T02:23:34.967Z,101711.91
2023-05-03T02:27:24.493Z,101713.27
2023-05-03T02:31:08.959Z,101712.21
2023-05-03T02:34:26.745Z,101712.84
2023-05-03T02:38:18.815Z,101710.60
2023-05-03T02:41:58.635Z,101713.16
2023-05-03T02:45:34.667Z,101714.73
2023-05-03T02:48:50.270Z,101708.83
2023-05-03T02:52:28.684Z,101709.36
2023-05-03T02:56:02.940Z,101709.36
2023-05-03T02:59:28.272Z,101709.03
2023-05-03T03:03:36.745Z,101712.82
2023-05-03T03:07:46.212Z,101712.64
2023-05-03T03:10:55.216Z,101728.88
2023-05-03T03:13:44.028Z,101731.46
2023-05-03T03:17:32.591Z,101730.60
2023-05-03T03:20:47.822Z,101730.41
2023-05-03T03:23:38.773Z,101740.27
2023-05-03T03:26:25.123Z,101738.86
2023-05-03T03:29:42.364Z,101746.79
2023-05-03T03:33:35.613Z,101749.39
2023-05-03T03:37:16.848Z,101745.77
2023-05-03T03:40:49.109Z,101755.60
2023-05-03T03:44:39.230Z,101755.60
2023-05-03T03:48:01.898Z,101756.61
2023-05-03T03:51:23.714Z,101759.39
2023-05-03T03:54:43.533Z,101767.52
2023-05-03T03:58:06.667Z,101768.55
2023-05-03T04:01:56.204Z,101769.05
2023-05-03T04:05:29.509Z,101765.07
2023-05-03T04:09:28.334Z,101768.01
2023-05-03T04:12:54.527Z,101776.50
2023-05-03T04:16:29.828Z,101776.84
2023-05-03T04:19:44.425Z,101780.13
2023-05-03T04:23:05.429Z,101793.13
2023-05-03T04:26:59.198Z,101789.35
2023-05-03T04:30:23.367Z,101790.25
2023-05-03T04:33:57.117Z,101792.33
2023-05-03T04:37:41.073Z,101797.39
2023-05-03T04:41:36.610Z,101797.06
2023-05-03T04:45:10.022Z,101800.87
2023-05-03T04:48:08.795Z,101800.51
2023-05-03T04:52:10.778Z,101802.80
2023-05-03T04:56:02.196Z,101811.64
2023-05-03T04:59:10.927Z,101804.23
2023-05-03T05:02:58.971Z,101808.59
2023-05-03T05:06:58.536Z,101810.70
2023-05-03T05:10:50.421Z,101807.45
2023-05-03T05:14:54.952Z,101806.41
2023-05-03T05:18:48.646Z,101814.05
2023-05-03T05:22:37.667Z,101817.89
2023-05-03T05:26:42.214Z,101814.10
2023-05-03T05:30:26.784Z,101812.56
2023-05-03T05:34:17.682Z,101818.64
2023-05-03T05:38:27.576Z,101822.80
2023-05-03T05:42:28.828Z,101819.89
2023-05-03T05:46:38.128Z,101823.17
2023-05-03T05:50:47.709Z,101819.05
2023-05-03T05:54:39.162Z,101831.00
2023-05-03T05:58:48.586Z,101827.89
2023-05-03T06:02:58.321Z,101824.98
2023-05-03T06:06:54.428Z,101829.66
2023-05-03T06:10:57.194Z,101830.52
2023-05-03T06:15:06.679Z,101835.55
2023-05-03T06:19:16.292Z,101838.69
2023-05-03T06:23:11.506Z,101846.66
2023-05-03T06:26:59.725Z,101854.11
2023-05-03T06:30:31.244Z,101844.94
2023-05-03T06:34:28.251Z,101851.88
2023-05-03T06:38:37.695Z,101852.20
2023-05-03T06:42:47.661Z,101853.59
2023-05-03T06:46:57.148Z,101858.11
2023-05-03T06:50:44.577Z,101849.61
2023-05-03T06:54:29.807Z,101856.70
2023-05-03T06:58:14.732Z,101853.05
2023-05-03T07:02:08.102Z,101871.77
2023-05-03T07:05:40.721Z,101886.83
2023-05-03T07:09:26.150Z,101875.55
2023-05-03T07:13:41.675Z,101870.86
2023-05-03T07:17:51.186Z,101871.37
2023-05-03T07:21:42.771Z,101877.96
2023-05-03T07:25:45.199Z,101880.89
2023-05-03T07:29:27.885Z,101873.61
2023-05-03T07:33:38.262Z,101890.77
2023-05-03T07:37:40.653Z,101892.13
2023-05-03T07:41:49.475Z,101896.96
2023-05-03T07:45:24.066Z,101902.12
2023-05-03T07:49:18.404Z,101910.41
2023-05-03T07:53:17.002Z,101889.70
2023-05-03T07:57:26.557Z,101888.48
2023-05-03T08:00:54.008Z,101897.98
2023-05-03T08:04:16.314Z,101899.16
2023-05-03T08:08:25.707Z,101909.02
2023-05-03T08:12:08.207Z,101912.79
2023-05-03T08:15:18.393Z,101901.44
2023-05-03T08:18:11.034Z,101895.34
2023-05-03T08:21:28.439Z,101891.99
2023-05-03T08:24:29.444Z,101894.05
2023-05-03T08:27:50.231Z,101906.70
2023-05-03T08:31:15.179Z,101913.09
2023-05-03T08:34:42.102Z,101923.48
2023-05-03T08:37:41.681Z,101929.72
2023-05-03T08:41:18.093Z,101931.80
2023-05-03T08:44:49.574Z,101936.98
2023-05-03T08:48:05.575Z,101930.36
2023-05-03T08:51:10.598Z,101941.95
2023-05-03T08:55:20.585Z,101933.36
2023-05-03T08:58:34.373Z,101932.10
2023-05-03T09:02:37.474Z,101944.59
2023-05-03T09:06:39.694Z,101929.41
2023-05-03T09:09:51.953Z,101933.94
2023-05-03T09:13:24.871Z,101936.36
2023-05-03T09:17:09.961Z,101934.77
2023-05-03T09:20:37.237Z,101939.95
2023-05-03T09:24:05.916Z,101948.77
2023-05-03T09:27:28.305Z,101946.66
2023-05-03T09:31:02.066Z,101945.03
2023-05-03T09:34:44.225Z,101946.38
2023-05-03T09:38:09.639Z,101952.80
2023-05-03T09:41:46.972Z,101942.80
2023-05-03T09:45:18.072Z,101947.61
2023-05-03T09:48:16.040Z,101951.89
2023-05-03T09:51:43.004Z,101949.56
2023-05-03T09:55:13.825Z,101952.52
2023-05-03T09:58:31.186Z,101955.48
2023-05-03T10:01:57.730Z,101958.38
2023-05-03T10:05:16.435Z,101948.67
2023-05-03T10:08:38.052Z,101952.62
2023-05-03T10:12:38.018Z,101965.89
2023-05-03T10:16:00.715Z,101962.77
2023-05-03T10:19:50.970Z,101963.19
2023-05-03T10:23:46.496Z,101956.10
2023-05-03T10:27:34.682Z,101960.23
2023-05-03T10:31:07.113Z,101956.11
2023-05-03T10:35:00.241Z,101958.80
2023-05-03T10:38:40.261Z,101959.95
2023-05-03T10:42:50.662Z,101960.07
2023-05-03T10:46:08.509Z,101961.54
2023-05-03T10:50:03.876Z,101960.13
2023-05-03T10:53:33.278Z,101954.89
2023-05-03T10:57:28.157Z,101954.14
2023-05-03T11:00:44.082Z,101954.16
2023-05-03T11:04:00.335Z,101968.75
2023-05-03T11:07:19.721Z,101973.38
2023-05-03T11:11:12.955Z,101971.19
2023-05-03T11:15:12.835Z,101971.78
2023-05-03T11:18:29.002Z,101974.33
2023-05-03T11:22:37.107Z,101980.75
2023-05-03T11:26:27.622Z,101982.84
2023-05-03T11:30:02.765Z,101980.55
2023-05-03T11:33:11.835Z,101983.55
2023-05-03T11:36:34.566Z,101981.96
2023-05-03T11:40:17.130Z,101988.05
2023-05-03T11:43:09.332Z,101984.39
2023-05-03T11:46:12.110Z,101986.31
2023-05-03T11:49:40.153Z,101983.69
2023-05-03T11:53:13.773Z,101987.16
2023-05-03T11:56:22.952Z,101983.80
2023-05-03T11:59:51.831Z,101988.97
2023-05-03T12:03:40.932Z,101985.30
2023-05-03T12:07:27.130Z,101987.89
2023-05-03T12:10:52.713Z,101989.66
2023-05-03T12:14:13.765Z,101986.04
2023-05-03T12:17:49.773Z,101988.27
2023-05-03T12:21:41.972Z,101993.08
2023-05-03T12:24:49.846Z,101994.49
2023-05-03T12:27:19.735Z,101994.61
2023-05-03T12:30:03.895Z,101990.94
2023-05-03T12:33:17.148Z,101994.72
2023-05-03T12:36:32.500Z,101994.27
2023-05-03T12:39:46.107Z,101990.45
2023-05-03T12:43:01.997Z,101997.45
2023-05-03T12:45:41.584Z,101996.71
2023-05-03T12:48:38.641Z,101997.00
2023-05-03T12:51:55.426Z,101996.42
2023-05-03T12:55:09.130Z,102003.07
2023-05-03T12:58:36.983Z,102004.77
2023-05-03T13:04:43.476Z,102001.61
2023-05-03T13:07:35.188Z,101997.08
2023-05-03T13:10:24.942Z,101992.79
2023-05-03T13:13:07.289Z,101994.95
2023-05-03T13:16:28.359Z,101997.34
2023-05-03T13:19:13.779Z,101989.32
2023-05-03T13:22:16.383Z,101994.02
2023-05-03T13:24:46.261Z,101998.91
2023-05-03T13:27:18.379Z,101998.17
2023-05-03T13:29:49.846Z,101997.27
2023-05-03T13:32:29.867Z,101997.61
2023-05-03T13:35:12.407Z,101993.59
2023-05-03T13:38:13.675Z,101992.86
2023-05-03T13:41:06.305Z,101991.95
2023-05-03T13:43:58.269Z,101991.08
2023-05-03T13:46:43.296Z,101998.49
2023-05-03T14:03:06.697Z,101994.75
2023-05-03T14:05:51.545Z,101997.88
2023-05-03T14:09:02.246Z,101996.95
2023-05-03T14:11:57.582Z,102005.23
2023-05-03T14:15:29.273Z,102008.29
2023-05-03T14:18:47.339Z,102007.47
2023-05-03T14:22:10.390Z,102007.58
2023-05-03T14:26:01.656Z,102005.26
2023-05-03T14:29:25.230Z,102005.30
2023-05-03T14:32:50.764Z,102005.08
2023-05-03T14:36:21.276Z,102007.15
2023-05-03T14:39:32.903Z,102009.45
2023-05-03T14:42:42.282Z,102008.83
2023-05-03T14:45:50.485Z,102011.38
2023-05-03T14:49:24.890Z,102018.89
2023-05-03T14:52:43.856Z,102023.64
2023-05-03T14:56:35.838Z,102027.08
2023-05-03T15:00:18.139Z,102025.48
2023-05-03T15:04:03.432Z,102029.73
2023-05-03T15:07:15.559Z,102029.06
2023-05-03T15:11:23.858Z,102025.11
2023-05-03T15:15:15.767Z,102026.73
2023-05-03T15:18:23.592Z,102031.14
2023-05-03T15:21:07.353Z,102028.44
2023-05-03T15:24:25.426Z,102030.39
2023-05-03T15:28:01.868Z,102036.49
2023-05-03T15:31:38.270Z,102040.73
2023-05-03T15:34:58.002Z,102039.48
2023-05-03T15:37:59.889Z,102041.71
2023-05-03T15:41:36.740Z,102039.73
2023-05-03T15:44:58.955Z,102035.66
2023-05-03T15:49:01.295Z,102036.73
2023-05-03T15:52:21.836Z,102034.57
2023-05-03T15:56:11.688Z,102041.08
2023-05-03T15:59:20.503Z,102043.20
2023-05-03T16:03:19.905Z,102046.02
2023-05-03T16:07:02.521Z,102046.91
2023-05-03T16:10:24.935Z,102051.30
2023-05-03T16:14:14.958Z,102049.39
2023-05-03T16:17:46.654Z,102051.47
2023-05-03T16:21:30.201Z,102056.02
2023-05-03T16:25:23.055Z,102059.15
2023-05-03T16:29:01.112Z,102059.48
2023-05-03T16:33:10.816Z,102058.63
2023-05-03T16:36:49.537Z,102055.31
2023-05-03T16:40:49.127Z,102056.91
2023-05-03T16:44:58.760Z,102056.76
2023-05-03T16:49:08.364Z,102061.98
2023-05-03T16:53:20.389Z,102063.55
2023-05-03T16:57:03.783Z,102063.55
2023-05-03T17:00:28.956Z,102065.98
2023-05-03T17:03:47.047Z,102066.83
2023-05-03T17:07:25.514Z,102069.27
2023-05-03T17:10:57.743Z,102066.52
2023-05-03T17:14:29.914Z,102066.17
2023-05-03T17:18:30.624Z,102068.45
2023-05-03T17:22:14.871Z,102066.38
2023-05-03T17:25:56.603Z,102063.60
2023-05-03T17:29:24.581Z,102065.31
2023-05-03T17:33:11.651Z,102068.40
2023-05-03T17:37:02.904Z,102068.64
2023-05-03T17:40:41.124Z,102068.17
2023-05-03T17:43:44.811Z,102071.70
2023-05-03T17:46:27.033Z,102071.30
2023-05-03T17:49:17.541Z,102075.43
2023-05-03T17:52:28.981Z,102077.38
2023-05-03T17:55:36.903Z,102080.73
2023-05-03T17:58:09.528Z,102073.30
2023-05-03T18:01:07.916Z,102072.29
2023-05-03T18:03:44.783Z,102073.73
2023-05-03T18:06:27.173Z,102076.71
2023-05-03T18:08:55.778Z,102081.98
2023-05-03T18:11:41.441Z,102081.31
2023-05-03T18:14:59.597Z,102078.08
2023-05-03T18:18:05.373Z,102080.91
2023-05-03T18:20:42.115Z,102084.24
2023-05-03T18:23:36.628Z,102082.16
2023-05-03T18:26:33.516Z,102083.40
2023-05-03T18:29:34.906Z,102086.39
2023-05-03T18:32:08.591Z,102086.42
2023-05-03T18:35:31.359Z,102089.21
2023-05-03T18:39:00.376Z,102090.64
2023-05-03T18:42:16.782Z,102095.17
2023-05-03T18:45:46.074Z,102094.86
2023-05-03T18:49:01.106Z,102097.30
2023-05-03T18:52:05.867Z,102099.92
2023-05-03T18:54:43.421Z,102105.30
2023-05-03T18:57:38.038Z,102105.84
2023-05-03T19:00:22.894Z,102105.50
2023-05-03T19:02:54.156Z,102105.85
2023-05-03T19:05:50.913Z,102111.59
2023-05-03T19:08:43.616Z,102108.98
2023-05-03T19:11:50.460Z,102108.29
2023-05-03T19:14:26.388Z,102107.08
2023-05-03T19:17:40.628Z,102104.98
2023-05-03T19:20:29.850Z,102101.87
2023-05-03T19:22:58.637Z,102103.77
2023-05-03T19:25:27.666Z,102100.85
2023-05-03T19:28:14.602Z,102103.63
2023-05-03T19:31:37.777Z,102101.20
2023-05-03T19:34:15.164Z,102100.33
2023-05-03T19:37:00.150Z,102101.88
2023-05-03T19:40:11.368Z,102102.58
2023-05-03T19:42:50.587Z,102106.40
2023-05-03T19:46:06.802Z,102107.27
2023-05-03T19:48:52.046Z,102105.70
2023-05-03T19:51:57.792Z,102104.48
2023-05-03T19:54:57.417Z,102100.32
2023-05-03T19:57:38.128Z,102100.32
2023-05-03T20:00:22.964Z,102102.05
2023-05-03T20:03:29.365Z,102105.00
2023-05-03T20:06:18.106Z,102110.37
2023-05-03T20:09:05.493Z,102110.55
2023-05-03T20:12:39.653Z,102112.45
2023-05-03T20:15:29.305Z,102110.89
2023-05-03T20:18:41.475Z,102111.74
2023-05-03T20:21:44.850Z,102114.00
2023-05-03T20:24:52.685Z,102114.16
2023-05-03T20:28:38.514Z,102111.20
2023-05-03T20:31:27.582Z,102112.05
2023-05-03T20:34:17.911Z,102113.95
2023-05-03T20:37:47.284Z,102114.48
2023-05-03T20:41:26.386Z,102114.13
2023-05-03T20:44:42.251Z,102119.13
2023-05-03T20:48:08.431Z,102119.80
2023-05-03T20:51:19.903Z,102122.17
2023-05-03T20:54:46.507Z,102116.98
2023-05-03T20:57:54.424Z,102115.05
2023-05-03T21:01:08.594Z,102111.73
2023-05-03T21:04:26.951Z,102112.95
2023-05-03T21:07:41.951Z,102112.42
2023-05-03T21:10:49.334Z,102115.02
2023-05-03T21:13:56.669Z,102113.98
2023-05-03T21:17:18.228Z,102113.27
2023-05-03T21:20:24.105Z,102108.73
2023-05-03T21:23:32.804Z,102108.73
2023-05-03T21:26:50.671Z,102109.77
2023-05-03T21:30:45.505Z,102107.34
2023-05-03T21:34:52.495Z,102108.91
2023-05-03T21:38:27.844Z,102108.91
2023-05-03T21:42:08.162Z,102109.79
2023-05-03T21:44:58.872Z,102108.94
2023-05-03T21:48:28.052Z,102105.30
2023-05-03T21:52:24.706Z,102107.71
2023-05-03T21:56:34.258Z,102103.37
2023-05-03T21:59:46.099Z,102103.90
2023-05-03T22:02:40.297Z,102106.51
2023-05-03T22:06:02.620Z,102105.47
2023-05-03T22:08:58.283Z,102103.20
2023-05-03T22:12:57.882Z,102096.80
2023-05-03T22:16:18.768Z,102099.73
2023-05-03T22:19:45.656Z,102100.59
2023-05-03T22:23:45.398Z,102098.31
2023-05-03T22:26:52.811Z,102092.92
2023-05-03T22:29:47.492Z,102092.39
2023-05-03T22:33:47.419Z,102089.27
2023-05-03T22:36:48.170Z,102092.04
2023-05-03T22:40:27.240Z,102090.13
2023-05-03T22:44:32.902Z,102089.08
2023-05-03T22:47:45.875Z,102088.89
2023-05-03T22:51:19.218Z,102092.16
2023-05-03T22:54:54.743Z,102092.84
2023-05-03T22:58:05.496Z,102097.16
2023-05-03T23:01:51.023Z,102096.10
2023-05-03T23:05:29.774Z,102092.98
2023-05-03T23:09:04.630Z,102090.03
2023-05-03T23:12:51.964Z,102086.73
2023-05-03T23:16:55.263Z,102083.96
2023-05-03T23:20:39.463Z,102081.34
2023-05-03T23:23:33.234Z,102080.98
2023-05-03T23:26:49.881Z,102081.67
2023-05-03T23:30:00.684Z,102082.70
2023-05-03T23:33:12.582Z,102076.27
2023-05-03T23:36:24.619Z,102077.63
2023-05-03T23:39:38.854Z,102079.66
2023-05-03T23:42:56.807Z,102072.35
2023-05-03T23:45:52.416Z,102072.65
2023-05-03T23:48:57.147Z,102071.41
2023-05-03T23:51:46.781Z,102068.98
2023-05-03T23:55:05.466Z,102067.56
2023-05-03T23:58:30.351Z,102067.70
